Time;durP1;ratioP1;P1;durP2;ratioP2;P2;SDS_P1;SDS_P2;PMS_P1;PMS_P2;Temp;Humidity;BMP_temperature;BMP_pressure;BME280_temperature;BME280_humidity;BME280_pressure;Samples;Min_cycle;Max_cycle;Signal;HPM_P1;HPM_P2
2023/10/25 00:02:10;;;;;;;13.27;6.28;;;10.20;99.90;;;;;;5108377;28;20377;-47
2023/10/25 00:04:36;;;;;;;12.80;6.07;;;10.20;99.90;;;;;;5113706;28;20040;-47
2023/10/25 00:07:01;;;;;;;11.70;5.88;;;10.10;99.90;;;;;;5113748;28;20432;-47
2023/10/25 00:09:27;;;;;;;12.65;5.47;;;10.20;99.90;;;;;;5113464;28;20035;-45
2023/10/25 00:11:54;;;;;;;18.02;6.20;;;10.10;99.90;;;;;;5113301;28;20494;-46
2023/10/25 00:14:20;;;;;;;11.75;6.00;;;10.10;99.90;;;;;;5113470;28;20040;-45
2023/10/25 00:16:45;;;;;;;11.18;5.45;;;10.20;99.90;;;;;;5113429;28;20112;-45
2023/10/25 00:19:11;;;;;;;10.82;5.53;;;10.10;99.90;;;;;;5113013;28;20063;-47
2023/10/25 00:21:37;;;;;;;9.80;5.20;;;10.10;99.90;;;;;;5113196;28;20545;-45
2023/10/25 00:24:02;;;;;;;16.85;5.10;;;10.10;99.90;;;;;;5113179;28;20039;-49
2023/10/25 00:26:28;;;;;;;11.27;5.70;;;10.20;99.90;;;;;;5113018;28;20035;-46
2023/10/25 00:28:54;;;;;;;10.65;5.50;;;10.20;99.90;;;;;;5113420;28;20339;-47
2023/10/25 00:31:20;;;;;;;10.73;5.65;;;10.10;99.90;;;;;;5113271;28;20366;-46
2023/10/25 00:33:46;;;;;;;12.70;5.32;;;10.10;99.90;;;;;;5112913;28;20040;-46
2023/10/25 00:36:11;;;;;;;7.95;5.28;;;10.10;99.90;;;;;;5113032;28;20048;-45
2023/10/25 00:38:37;;;;;;;9.85;4.70;;;10.10;99.90;;;;;;5112882;28;20039;-48
2023/10/25 00:41:03;;;;;;;12.43;5.72;;;10.10;99.90;;;;;;5112749;28;20090;-46
2023/10/25 00:43:29;;;;;;;12.25;5.20;;;10.10;99.90;;;;;;5112702;28;20389;-47
2023/10/25 00:46:15;;;;;;;11.45;5.45;;;10.00;99.90;;;;;;5112679;28;20043;-46
2023/10/25 00:48:44;;;;;;;10.25;5.55;;;10.00;99.90;;;;;;5112685;28;20032;-48
2023/10/25 00:51:12;;;;;;;15.95;5.55;;;10.00;99.90;;;;;;5112394;28;20046;-46
2023/10/25 00:53:40;;;;;;;11.95;5.35;;;9.90;99.90;;;;;;5094440;28;20036;-46
2023/10/25 00:56:11;;;;;;;10.50;5.50;;;9.90;99.90;;;;;;5112413;28;20366;-49
2023/10/25 00:58:40;;;;;;;11.73;5.63;;;9.90;99.90;;;;;;5112461;28;20043;-46
2023/10/25 01:01:08;;;;;;;10.90;5.82;;;9.90;99.90;;;;;;5112847;28;20054;-47
2023/10/25 01:03:34;;;;;;;12.65;5.80;;;9.90;99.90;;;;;;5094235;28;20486;-47
2023/10/25 01:06:02;;;;;;;8.88;5.05;;;9.90;99.90;;;;;;5111189;28;20040;-46
2023/10/25 01:08:28;;;;;;;9.50;5.45;;;9.80;99.90;;;;;;5112549;28;20111;-46
2023/10/25 01:10:54;;;;;;;11.27;5.07;;;9.80;99.90;;;;;;5107345;28;20100;-45
2023/10/25 01:13:20;;;;;;;12.88;5.13;;;9.80;99.90;;;;;;5091970;28;20600;-47
2023/10/25 01:15:47;;;;;;;14.90;5.68;;;9.80;99.90;;;;;;5091950;28;20040;-46
2023/10/25 01:18:13;;;;;;;13.18;5.82;;;9.80;99.90;;;;;;5091823;28;20100;-46
2023/10/25 01:20:39;;;;;;;11.18;5.55;;;9.70;99.90;;;;;;5091641;28;20036;-47
2023/10/25 01:23:05;;;;;;;13.65;5.53;;;9.70;99.90;;;;;;5091653;28;20038;-46
2023/10/25 01:25:30;;;;;;;11.25;5.45;;;9.70;99.90;;;;;;5091490;28;20028;-48
2023/10/25 01:27:57;;;;;;;12.32;5.25;;;9.70;99.90;;;;;;5091600;28;20036;-45
2023/10/25 01:30:23;;;;;;;10.63;5.95;;;9.70;99.90;;;;;;5091959;28;20046;-46
2023/10/25 01:32:49;;;;;;;11.73;5.57;;;9.60;99.90;;;;;;5091680;28;20036;-46
2023/10/25 01:35:14;;;;;;;9.18;5.53;;;9.60;99.90;;;;;;5091490;28;20482;-45
2023/10/25 01:37:40;;;;;;;12.02;5.47;;;9.60;99.90;;;;;;5091600;28;20043;-46
2023/10/25 01:40:07;;;;;;;8.30;4.75;;;9.50;99.90;;;;;;5091381;28;20097;-45
2023/10/25 01:42:32;;;;;;;12.73;5.20;;;9.50;99.90;;;;;;5091514;28;20040;-45
2023/10/25 01:45:01;;;;;;;13.20;5.53;;;9.50;99.90;;;;;;5091453;28;20558;-47
2023/10/25 01:47:27;;;;;;;12.33;4.90;;;9.50;99.90;;;;;;5073799;28;20036;-46
2023/10/25 01:49:53;;;;;;;12.27;5.88;;;9.50;99.90;;;;;;5091451;28;20036;-46
2023/10/25 01:52:18;;;;;;;8.75;4.70;;;9.50;99.90;;;;;;5091419;28;20046;-46
2023/10/25 01:54:46;;;;;;;13.10;5.50;;;9.50;99.90;;;;;;5091517;28;20509;-47
2023/10/25 01:57:12;;;;;;;8.93;5.30;;;9.40;99.90;;;;;;5091212;28;20146;-46
2023/10/25 01:59:38;;;;;;;6.97;4.97;;;9.40;99.90;;;;;;5091551;28;20044;-48
2023/10/25 02:02:04;;;;;;;11.00;4.97;;;9.40;99.90;;;;;;5092844;28;20044;-48
2023/10/25 02:04:30;;;;;;;10.60;4.80;;;9.40;99.90;;;;;;5095499;28;20043;-46
2023/10/25 02:06:56;;;;;;;11.25;5.55;;;9.40;99.90;;;;;;5095219;28;20370;-45
2023/10/25 02:09:22;;;;;;;9.55;5.28;;;9.40;99.90;;;;;;5077377;28;20044;-45
2023/10/25 02:11:48;;;;;;;10.40;5.47;;;9.40;99.90;;;;;;5095139;28;20129;-44
2023/10/25 02:14:14;;;;;;;11.20;5.10;;;9.40;99.90;;;;;;5095718;28;20048;-46
2023/10/25 02:16:40;;;;;;;11.45;5.68;;;9.40;99.90;;;;;;5095260;28;20094;-45
2023/10/25 02:19:06;;;;;;;12.77;5.70;;;9.30;99.90;;;;;;5095117;28;20036;-44
2023/10/25 02:21:35;;;;;;;10.32;5.07;;;9.30;99.90;;;;;;5095023;28;20040;-45
2023/10/25 02:24:02;;;;;;;9.38;5.63;;;9.30;99.90;;;;;;5094815;28;20084;-46
2023/10/25 02:26:28;;;;;;;9.77;5.40;;;9.30;99.90;;;;;;5095298;28;20040;-46
2023/10/25 02:28:54;;;;;;;12.52;5.90;;;9.30;99.90;;;;;;5095202;28;20038;-44
2023/10/25 02:31:20;;;;;;;11.95;5.63;;;9.30;99.90;;;;;;5095044;28;20036;-45
2023/10/25 02:33:46;;;;;;;11.88;5.88;;;9.20;99.90;;;;;;5094949;28;20043;-46
2023/10/25 02:36:12;;;;;;;10.52;5.85;;;9.20;99.90;;;;;;5094782;28;20059;-45
2023/10/25 02:38:37;;;;;;;13.60;5.88;;;9.20;99.90;;;;;;5094760;28;20032;-47
2023/10/25 02:41:03;;;;;;;11.35;5.97;;;9.20;99.90;;;;;;5094883;28;20043;-47
2023/10/25 02:43:29;;;;;;;14.20;6.15;;;9.20;99.90;;;;;;5076682;28;20063;-46
2023/10/25 02:46:02;;;;;;;16.13;6.70;;;9.20;99.90;;;;;;5094912;28;20093;-47
2023/10/25 02:48:28;;;;;;;15.48;6.63;;;9.20;99.90;;;;;;5094900;28;20074;-49
2023/10/25 02:50:54;;;;;;;11.45;6.57;;;9.20;99.90;;;;;;5094688;28;20074;-47
2023/10/25 02:53:19;;;;;;;12.45;6.18;;;9.20;99.90;;;;;;5076063;28;20390;-47
2023/10/25 02:55:47;;;;;;;11.18;6.38;;;9.20;99.90;;;;;;5094650;28;20036;-47
2023/10/25 02:58:13;;;;;;;15.95;7.05;;;9.10;99.90;;;;;;5094498;28;20040;-45
2023/10/25 03:00:39;;;;;;;11.18;6.65;;;9.10;99.90;;;;;;5094471;28;20032;-44
2023/10/25 03:03:05;;;;;;;13.98;7.75;;;9.10;99.90;;;;;;5094208;28;20105;-45
2023/10/25 03:05:31;;;;;;;11.65;6.72;;;9.00;99.90;;;;;;5094397;28;20071;-45
2023/10/25 03:07:57;;;;;;;13.63;6.38;;;9.00;99.90;;;;;;5094314;28;20405;-47
2023/10/25 03:10:23;;;;;;;13.80;6.72;;;9.00;99.90;;;;;;5094290;28;20043;-47
2023/10/25 03:12:49;;;;;;;13.35;7.90;;;9.00;99.90;;;;;;5093716;28;20130;-45
2023/10/25 03:15:15;;;;;;;15.30;7.60;;;8.90;99.90;;;;;;5094033;28;20109;-44
2023/10/25 03:17:40;;;;;;;11.57;8.05;;;8.90;99.90;;;;;;5094034;28;20036;-47
2023/10/25 03:20:06;;;;;;;15.00;7.68;;;8.90;99.90;;;;;;5093997;28;20036;-47
2023/10/25 03:22:32;;;;;;;23.23;9.32;;;8.90;99.90;;;;;;5093848;28;20047;-45
2023/10/25 03:24:58;;;;;;;14.00;8.50;;;8.90;99.90;;;;;;5094329;28;20101;-45
2023/10/25 03:27:24;;;;;;;14.10;8.15;;;8.80;99.90;;;;;;5094273;28;20556;-45
2023/10/25 03:29:49;;;;;;;17.45;8.82;;;8.90;99.90;;;;;;5093937;28;20032;-47
2023/10/25 03:32:15;;;;;;;14.07;9.23;;;8.80;99.90;;;;;;5075750;28;20044;-47
2023/10/25 03:34:43;;;;;;;12.80;9.50;;;8.80;99.90;;;;;;5094059;28;20036;-46
2023/10/25 03:37:10;;;;;;;16.60;9.60;;;8.80;99.90;;;;;;5093749;28;20047;-45
2023/10/25 03:39:36;;;;;;;16.67;8.82;;;8.80;99.90;;;;;;5093763;28;20082;-45
2023/10/25 03:42:03;;;;;;;14.30;8.98;;;8.80;99.90;;;;;;5075559;28;20076;-46
2023/10/25 03:44:29;;;;;;;13.52;10.13;;;8.80;99.90;;;;;;5093593;28;20044;-47
2023/10/25 03:46:55;;;;;;;14.23;9.40;;;8.80;99.90;;;;;;5093603;28;20398;-46
2023/10/25 03:49:21;;;;;;;16.50;9.43;;;8.80;99.90;;;;;;5093453;28;20040;-46
2023/10/25 03:51:46;;;;;;;21.13;10.32;;;8.80;99.90;;;;;;5093165;28;20040;-45
2023/10/25 03:54:12;;;;;;;16.77;9.55;;;8.70;99.90;;;;;;5093673;28;20102;-45
2023/10/25 03:56:40;;;;;;;15.30;10.07;;;8.80;99.90;;;;;;5093197;28;20063;-46
2023/10/25 03:59:05;;;;;;;16.88;10.35;;;8.80;99.90;;;;;;5093360;28;20043;-46
2023/10/25 04:01:31;;;;;;;13.95;10.20;;;8.80;99.90;;;;;;5093170;28;20048;-46
2023/10/25 04:03:57;;;;;;;20.83;10.60;;;8.80;99.90;;;;;;5093183;28;20059;-45
2023/10/25 04:06:22;;;;;;;17.98;11.45;;;8.70;99.90;;;;;;5093268;28;20059;-47
2023/10/25 04:08:48;;;;;;;18.38;9.88;;;8.80;99.90;;;;;;5093182;28;20044;-46
2023/10/25 04:11:14;;;;;;;19.23;10.13;;;8.70;99.90;;;;;;5080728;28;20402;-46
2023/10/25 04:13:39;;;;;;;18.42;10.02;;;8.70;99.90;;;;;;5113510;28;20043;-45
2023/10/25 04:16:06;;;;;;;16.80;10.32;;;8.70;99.90;;;;;;5095363;28;20043;-46
2023/10/25 04:18:32;;;;;;;12.75;9.40;;;8.80;99.90;;;;;;5113169;28;20031;-46
2023/10/25 04:21:00;;;;;;;18.95;10.50;;;8.80;99.90;;;;;;5113387;28;20043;-46
2023/10/25 04:23:28;;;;;;;18.50;10.30;;;8.80;99.90;;;;;;5113407;28;20039;-45
2023/10/25 04:26:10;;;;;;;19.15;9.60;;;8.80;99.90;;;;;;5112621;28;20031;-48
2023/10/25 04:28:40;;;;;;;18.50;10.75;;;8.80;99.90;;;;;;5113082;28;20067;-46
2023/10/25 04:31:07;;;;;;;16.83;9.90;;;8.80;99.90;;;;;;5113216;28;20039;-47
2023/10/25 04:33:33;;;;;;;16.80;9.55;;;8.70;99.90;;;;;;5113494;28;20043;-46
2023/10/25 04:35:59;;;;;;;16.50;9.52;;;8.80;99.90;;;;;;5112911;28;20551;-45
2023/10/25 04:38:24;;;;;;;15.82;10.25;;;8.80;99.90;;;;;;5113065;28;20059;-45
2023/10/25 04:40:53;;;;;;;16.05;10.60;;;8.70;99.90;;;;;;5108318;28;20042;-49
2023/10/25 04:43:19;;;;;;;15.32;10.68;;;8.70;99.90;;;;;;5112211;28;20382;-48
2023/10/25 04:45:45;;;;;;;16.83;10.13;;;8.70;99.90;;;;;;5094499;28;20036;-47
2023/10/25 04:48:11;;;;;;;13.55;9.15;;;8.70;99.90;;;;;;5112483;28;20032;-47
2023/10/25 04:50:38;;;;;;;15.48;9.70;;;8.70;99.90;;;;;;5112488;28;20119;-49
2023/10/25 04:53:05;;;;;;;20.70;10.10;;;8.60;99.90;;;;;;5112651;28;20039;-46
2023/10/25 04:55:31;;;;;;;15.27;8.70;;;8.60;99.90;;;;;;5094587;28;20105;-46
2023/10/25 04:57:57;;;;;;;17.40;10.10;;;8.60;99.90;;;;;;5107166;28;20043;-46
2023/10/25 05:00:24;;;;;;;16.13;9.73;;;8.60;99.90;;;;;;5098111;28;20438;-45
2023/10/25 05:02:50;;;;;;;14.25;9.23;;;8.60;99.90;;;;;;5112395;28;20037;-46
2023/10/25 05:05:16;;;;;;;15.73;10.15;;;8.60;99.90;;;;;;5112371;28;20030;-47
2023/10/25 05:07:42;;;;;;;13.55;8.23;;;8.50;99.90;;;;;;5112540;28;20035;-45
2023/10/25 05:10:09;;;;;;;20.55;9.25;;;8.50;99.90;;;;;;5112178;28;20510;-44
2023/10/25 05:12:44;;;;;;;20.08;9.82;;;8.50;99.90;;;;;;5112024;28;20055;-48
2023/10/25 05:15:11;;;;;;;16.73;9.82;;;8.50;99.90;;;;;;5112253;28;20043;-46
2023/10/25 05:17:38;;;;;;;15.05;9.00;;;8.40;99.90;;;;;;5112221;28;20063;-47
2023/10/25 05:20:06;;;;;;;17.13;9.98;;;8.40;99.90;;;;;;5112258;28;20031;-48
2023/10/25 05:22:37;;;;;;;12.52;7.97;;;8.40;99.90;;;;;;5112086;28;20045;-46
2023/10/25 05:25:04;;;;;;;15.80;8.30;;;8.40;99.90;;;;;;5093895;28;20052;-47
2023/10/25 05:27:31;;;;;;;14.00;7.97;;;8.40;99.90;;;;;;5093895;28;20040;-46
2023/10/25 05:30:03;;;;;;;12.45;7.75;;;8.40;99.90;;;;;;5112371;28;20092;-46
2023/10/25 05:32:33;;;;;;;12.13;8.38;;;8.40;99.90;;;;;;5112060;28;20135;-46
2023/10/25 05:35:00;;;;;;;12.40;8.18;;;8.40;99.90;;;;;;5112050;28;20114;-49
2023/10/25 05:37:27;;;;;;;13.52;8.65;;;8.30;99.90;;;;;;5112021;28;20036;-48
2023/10/25 05:39:53;;;;;;;13.57;8.23;;;8.40;99.90;;;;;;5093623;28;20118;-47
2023/10/25 05:42:20;;;;;;;14.70;8.02;;;8.30;99.90;;;;;;5112114;28;20359;-47
2023/10/25 05:44:51;;;;;;;15.45;8.85;;;8.40;99.90;;;;;;5111731;28;20031;-45
2023/10/25 05:47:17;;;;;;;12.07;7.82;;;8.30;99.90;;;;;;5111821;28;20039;-46
2023/10/25 05:49:43;;;;;;;18.23;7.93;;;8.30;99.90;;;;;;5111613;28;20043;-47
2023/10/25 05:52:10;;;;;;;19.63;8.18;;;8.30;99.90;;;;;;5111848;28;20039;-47
2023/10/25 05:54:37;;;;;;;16.15;8.73;;;8.30;99.90;;;;;;5111584;28;20398;-47
2023/10/25 05:57:06;;;;;;;15.25;8.18;;;8.30;99.90;;;;;;5111796;28;20031;-45
2023/10/25 05:59:32;;;;;;;14.15;7.38;;;8.30;99.90;;;;;;5111614;28;20477;-46
2023/10/25 06:02:22;;;;;;;12.73;7.20;;;8.30;99.90;;;;;;5111632;28;20119;-46
2023/10/25 06:04:49;;;;;;;17.13;7.50;;;8.30;99.90;;;;;;5111627;28;20484;-46
2023/10/25 06:07:15;;;;;;;11.88;7.97;;;8.10;99.90;;;;;;5111834;28;20358;-46
2023/10/25 06:09:41;;;;;;;12.98;7.30;;;8.10;99.90;;;;;;5111914;28;20115;-45
2023/10/25 06:12:08;;;;;;;17.50;8.13;;;8.20;99.90;;;;;;5098090;28;20059;-49
2023/10/25 06:14:34;;;;;;;13.88;7.50;;;8.20;99.90;;;;;;5091302;28;20127;-46
2023/10/25 06:17:00;;;;;;;15.82;8.13;;;8.20;99.90;;;;;;5091124;28;20119;-46
2023/10/25 06:19:27;;;;;;;10.90;7.22;;;8.20;99.90;;;;;;5091032;28;20485;-46
2023/10/25 06:21:54;;;;;;;11.93;7.70;;;8.20;99.90;;;;;;5089713;28;20055;-47
2023/10/25 06:24:20;;;;;;;16.42;7.60;;;8.20;99.90;;;;;;5091327;28;20474;-46
2023/10/25 06:26:46;;;;;;;17.20;7.53;;;8.20;99.90;;;;;;5091531;28;20448;-47
2023/10/25 06:29:11;;;;;;;14.60;7.53;;;8.20;99.90;;;;;;5091033;28;20071;-45
2023/10/25 06:31:37;;;;;;;14.48;7.05;;;8.20;99.90;;;;;;5091237;28;20119;-46
2023/10/25 06:34:03;;;;;;;12.52;7.60;;;8.20;99.90;;;;;;5091271;28;20044;-46
2023/10/25 06:36:31;;;;;;;13.13;7.65;;;8.20;99.90;;;;;;5091171;28;20067;-46
2023/10/25 06:38:57;;;;;;;12.82;7.30;;;8.20;99.90;;;;;;5073232;28;20401;-46
2023/10/25 06:41:23;;;;;;;12.88;6.65;;;8.10;99.90;;;;;;5090781;28;20422;-47
2023/10/25 06:43:50;;;;;;;12.95;7.07;;;8.20;99.90;;;;;;5091067;28;20119;-46
2023/10/25 06:46:16;;;;;;;11.50;7.40;;;8.20;99.90;;;;;;5090866;28;20036;-46
2023/10/25 06:48:42;;;;;;;15.95;8.02;;;8.20;99.90;;;;;;5093508;28;20040;-46
2023/10/25 06:51:09;;;;;;;12.82;7.30;;;8.20;99.90;;;;;;5076590;28;20136;-46
2023/10/25 06:53:36;;;;;;;12.10;7.45;;;8.30;99.90;;;;;;5076561;28;20036;-46
2023/10/25 06:56:03;;;;;;;12.63;6.93;;;8.30;99.90;;;;;;5094666;28;20043;-47
2023/10/25 06:58:29;;;;;;;15.30;8.77;;;8.30;99.90;;;;;;5094143;28;20032;-46
2023/10/25 07:00:58;;;;;;;13.85;7.47;;;8.40;99.90;;;;;;5094587;28;20523;-47
2023/10/25 07:03:26;;;;;;;;;;;8.40;99.90;;;;;;5094704;28;20135;-48
2023/10/25 07:05:55;;;;;;;13.82;6.82;;;8.40;99.90;;;;;;5094438;28;19915;-46
2023/10/25 07:08:21;;;;;;;13.20;7.25;;;8.50;99.90;;;;;;5094428;28;20047;-46
2023/10/25 07:10:47;;;;;;;10.15;6.28;;;8.50;99.90;;;;;;5094271;28;20063;-45
2023/10/25 07:13:13;;;;;;;11.68;6.78;;;8.60;99.90;;;;;;5094265;28;20067;-46
2023/10/25 07:15:39;;;;;;;12.15;7.07;;;8.60;99.90;;;;;;5093874;28;20474;-46
2023/10/25 07:18:05;;;;;;;12.95;6.28;;;8.70;99.90;;;;;;5094446;28;20093;-45
2023/10/25 07:20:31;;;;;;;15.40;7.00;;;8.90;99.90;;;;;;5094098;28;20479;-45
2023/10/25 07:22:57;;;;;;;12.32;6.30;;;9.10;99.90;;;;;;5094118;28;20113;-45
2023/10/25 07:25:23;;;;;;;12.70;6.18;;;9.20;99.90;;;;;;5094049;28;20070;-45
2023/10/25 07:27:48;;;;;;;10.68;6.80;;;9.20;99.90;;;;;;5093891;28;20107;-45
2023/10/25 07:30:14;;;;;;;13.75;7.43;;;9.20;99.90;;;;;;5093703;28;20048;-46
2023/10/25 07:32:40;;;;;;;10.63;6.05;;;9.20;99.90;;;;;;5093890;28;20040;-44
2023/10/25 07:35:06;;;;;;;18.05;7.00;;;9.20;99.90;;;;;;5093886;28;20039;-45
2023/10/25 07:37:32;;;;;;;15.50;6.72;;;9.30;99.90;;;;;;5092845;28;20048;-46
2023/10/25 07:39:58;;;;;;;13.63;6.40;;;9.30;99.90;;;;;;5058337;28;20093;-47
2023/10/25 07:42:24;;;;;;;11.38;6.13;;;9.40;99.90;;;;;;5093453;28;20075;-45
2023/10/25 07:44:50;;;;;;;17.77;6.35;;;9.50;99.90;;;;;;5093516;28;20055;-45
2023/10/25 07:47:17;;;;;;;12.27;6.65;;;9.60;99.90;;;;;;5093418;28;20467;-46
2023/10/25 07:49:45;;;;;;;9.43;6.60;;;9.60;99.90;;;;;;5093358;28;20036;-44
2023/10/25 07:52:12;;;;;;;10.80;6.57;;;9.70;99.90;;;;;;5093392;28;20036;-45
2023/10/25 07:54:37;;;;;;;12.18;5.97;;;9.80;99.90;;;;;;5093234;28;20036;-46
2023/10/25 07:57:03;;;;;;;12.00;5.85;;;9.80;99.90;;;;;;5093150;28;20059;-46
2023/10/25 07:59:29;;;;;;;18.05;7.15;;;10.00;99.90;;;;;;5092129;28;20036;-45
2023/10/25 08:01:57;;;;;;;14.98;6.28;;;10.00;99.90;;;;;;5093425;28;20083;-46
2023/10/25 08:04:23;;;;;;;10.15;6.45;;;10.00;99.90;;;;;;5093433;28;20114;-45
2023/10/25 08:06:48;;;;;;;13.80;6.05;;;10.00;99.90;;;;;;5093072;28;20111;-45
2023/10/25 08:09:14;;;;;;;7.25;5.75;;;10.10;99.90;;;;;;5092883;28;20040;-45
2023/10/25 08:11:40;;;;;;;10.45;6.47;;;10.10;99.90;;;;;;5100208;28;20047;-44
2023/10/25 08:14:06;;;;;;;12.75;6.53;;;10.10;99.90;;;;;;5113319;28;20058;-44
2023/10/25 08:16:32;;;;;;;14.13;6.18;;;10.10;99.90;;;;;;5113564;28;20423;-45
2023/10/25 08:18:58;;;;;;;13.98;5.57;;;10.10;99.90;;;;;;5113677;28;20043;-47
2023/10/25 08:21:23;;;;;;;10.63;7.05;;;10.10;99.90;;;;;;5113515;28;20584;-46
2023/10/25 08:23:51;;;;;;;15.13;6.15;;;10.00;99.90;;;;;;5113084;28;20055;-46
2023/10/25 08:26:25;;;;;;;11.10;5.80;;;10.10;99.90;;;;;;5113419;28;20043;-44
2023/10/25 08:28:51;;;;;;;11.80;7.22;;;10.10;99.90;;;;;;5112750;28;20104;-46
2023/10/25 08:31:18;;;;;;;10.60;6.50;;;10.00;99.90;;;;;;5113010;28;20054;-44
2023/10/25 08:33:45;;;;;;;18.10;6.28;;;10.00;99.90;;;;;;5113111;28;20032;-45
2023/10/25 08:36:11;;;;;;;8.35;5.90;;;10.00;99.90;;;;;;5094690;28;20036;-45
2023/10/25 08:38:37;;;;;;;10.05;6.28;;;10.10;99.90;;;;;;5112930;28;20040;-44
2023/10/25 08:41:07;;;;;;;14.02;6.68;;;10.10;99.90;;;;;;5094795;28;20038;-45
2023/10/25 08:43:34;;;;;;;9.75;5.68;;;10.10;99.90;;;;;;5112903;28;20043;-45
2023/10/25 08:46:04;;;;;;;10.93;6.10;;;10.10;99.90;;;;;;5112543;28;20039;-45
2023/10/25 08:48:30;;;;;;;10.40;6.10;;;10.20;99.90;;;;;;5112854;28;20479;-45
2023/10/25 08:50:56;;;;;;;11.27;6.72;;;10.20;99.90;;;;;;5112642;28;20120;-45
2023/10/25 08:53:24;;;;;;;10.30;6.03;;;10.20;99.90;;;;;;5112601;28;20069;-45
2023/10/25 08:55:53;;;;;;;9.38;6.18;;;10.20;99.90;;;;;;5112327;28;20115;-45
2023/10/25 08:58:19;;;;;;;9.45;6.05;;;10.30;99.90;;;;;;5112340;28;20120;-44
2023/10/25 09:00:50;;;;;;;10.60;6.00;;;10.30;99.90;;;;;;5112520;28;20378;-45
2023/10/25 09:03:33;;;;;;;12.27;5.68;;;10.30;99.90;;;;;;5112610;28;20036;-47
2023/10/25 09:06:01;;;;;;;15.05;6.60;;;10.30;99.90;;;;;;5112236;28;20054;-50
2023/10/25 09:08:27;;;;;;;12.95;5.63;;;10.40;99.90;;;;;;5112582;28;20032;-49
2023/10/25 09:11:01;;;;;;;9.57;5.97;;;10.40;99.90;;;;;;5111915;28;20504;-46
2023/10/25 09:13:28;;;;;;;9.80;5.95;;;10.30;99.90;;;;;;5099083;28;20040;-45
2023/10/25 09:16:11;;;;;;;12.38;5.60;;;10.40;99.90;;;;;;5112403;28;20036;-47
2023/10/25 09:18:38;;;;;;;8.45;5.85;;;10.40;99.90;;;;;;5099351;28;20070;-45
2023/10/25 09:21:05;;;;;;;9.80;6.18;;;10.50;99.90;;;;;;5112233;28;20044;-47
2023/10/25 09:23:33;;;;;;;10.88;6.43;;;10.50;99.90;;;;;;5112262;28;20035;-48
2023/10/25 09:26:00;;;;;;;11.82;5.72;;;10.50;99.90;;;;;;5112164;28;20039;-45
2023/10/25 09:28:27;;;;;;;19.05;6.68;;;10.60;99.90;;;;;;5112048;28;20396;-46
2023/10/25 09:31:00;;;;;;;10.80;6.43;;;10.60;99.90;;;;;;5076426;28;20401;-46
2023/10/25 09:33:32;;;;;;;12.13;6.20;;;10.60;99.90;;;;;;5081680;28;20374;-46
2023/10/25 09:35:58;;;;;;;9.48;5.65;;;10.60;99.90;;;;;;5102635;28;20046;-46
2023/10/25 09:38:24;;;;;;;10.63;5.95;;;10.70;99.90;;;;;;5112798;28;20048;-45
2023/10/25 09:40:51;;;;;;;10.80;5.95;;;10.70;99.90;;;;;;5111908;28;20035;-49
2023/10/25 09:43:20;;;;;;;13.32;5.95;;;10.70;99.90;;;;;;5112086;28;20085;-49
2023/10/25 09:45:52;;;;;;;;;;;10.80;99.90;;;;;;5112436;28;20039;-45
2023/10/25 09:48:19;;;;;;;12.30;5.85;;;10.80;99.90;;;;;;5112094;28;19915;-49
2023/10/25 09:51:06;;;;;;;13.27;5.93;;;10.80;99.90;;;;;;5111643;28;20039;-45
2023/10/25 09:53:58;;;;;;;14.85;7.13;;;10.90;99.90;;;;;;5111922;28;20115;-50
2023/10/25 09:56:24;;;;;;;9.80;5.63;;;10.90;99.90;;;;;;5112180;28;20066;-46
2023/10/25 09:58:52;;;;;;;13.90;5.70;;;10.90;99.90;;;;;;5111716;28;20067;-47
2023/10/25 10:01:17;;;;;;;12.07;5.78;;;10.90;99.90;;;;;;5093736;28;20043;-46
2023/10/25 10:03:55;;;;;;;10.77;6.28;;;10.90;99.90;;;;;;5093658;28;20416;-46
2023/10/25 10:06:26;;;;;;;12.20;6.05;;;10.90;99.90;;;;;;5111996;28;20111;-48
2023/10/25 10:09:06;;;;;;;13.38;6.47;;;11.00;99.90;;;;;;5112187;28;20039;-46
2023/10/25 10:11:39;;;;;;;9.30;6.40;;;11.10;99.90;;;;;;5111678;28;20059;-45
2023/10/25 10:14:28;;;;;;;12.60;6.80;;;11.10;99.90;;;;;;5111963;28;20066;-48
2023/10/25 10:17:03;;;;;;;12.88;6.90;;;11.20;99.90;;;;;;5098733;28;20035;-47
2023/10/25 10:19:31;;;;;;;14.05;6.70;;;11.20;99.90;;;;;;5111430;28;20075;-46
2023/10/25 10:22:13;;;;;;;11.20;5.83;;;11.30;99.90;;;;;;5111740;28;20389;-47
2023/10/25 10:24:49;;;;;;;10.43;5.68;;;11.30;99.90;;;;;;5115529;28;20040;-46
2023/10/25 10:27:17;;;;;;;12.95;5.53;;;11.40;99.90;;;;;;5115498;28;20038;-44
2023/10/25 10:29:44;;;;;;;11.70;6.28;;;11.40;99.90;;;;;;5115570;28;20027;-46
2023/10/25 10:32:10;;;;;;;11.25;6.07;;;11.50;99.90;;;;;;5115594;28;20102;-46
2023/10/25 10:34:53;;;;;;;13.48;6.30;;;11.60;99.90;;;;;;5115307;28;20051;-47
2023/10/25 10:37:29;;;;;;;7.10;4.95;;;11.70;99.90;;;;;;5097021;28;20035;-45
2023/10/25 10:39:57;;;;;;;11.13;6.43;;;11.70;99.90;;;;;;5114930;28;20044;-45
2023/10/25 10:42:35;;;;;;;10.23;5.63;;;11.80;99.90;;;;;;5114936;28;20470;-47
2023/10/25 10:45:04;;;;;;;8.60;5.53;;;11.80;99.90;;;;;;5114975;28;20032;-47
2023/10/25 10:47:56;;;;;;;9.27;5.25;;;11.80;99.90;;;;;;5115134;28;20039;-46
2023/10/25 10:50:23;;;;;;;11.00;4.88;;;11.90;99.90;;;;;;5110146;28;20044;-46
2023/10/25 10:52:51;;;;;;;11.57;4.43;;;11.90;99.90;;;;;;5114659;28;20539;-48
2023/10/25 10:55:24;;;;;;;11.65;4.72;;;12.00;99.90;;;;;;5115080;28;20039;-46
2023/10/25 10:57:51;;;;;;;10.50;4.63;;;12.00;99.90;;;;;;5114606;28;20038;-45
2023/10/25 11:00:18;;;;;;;11.02;4.97;;;12.10;99.90;;;;;;5115167;28;20035;-47
2023/10/25 11:02:48;;;;;;;8.82;4.72;;;12.20;99.90;;;;;;5114739;28;20394;-45
2023/10/25 11:05:15;;;;;;;10.80;5.38;;;12.30;99.90;;;;;;5114950;28;20107;-48
2023/10/25 11:07:42;;;;;;;9.15;5.57;;;12.30;99.90;;;;;;5114732;28;20032;-45
2023/10/25 11:10:08;;;;;;;10.35;5.20;;;12.40;99.90;;;;;;5114703;28;20112;-46
2023/10/25 11:12:34;;;;;;;12.38;5.20;;;12.50;99.90;;;;;;5114612;28;20550;-44
2023/10/25 11:15:04;;;;;;;10.23;4.70;;;12.50;99.90;;;;;;5114844;28;20043;-49
2023/10/25 11:17:36;;;;;;;10.57;5.05;;;12.60;99.90;;;;;;5114454;28;20067;-45
2023/10/25 11:20:02;;;;;;;10.57;5.10;;;12.60;99.90;;;;;;5114578;28;20063;-45
2023/10/25 11:22:30;;;;;;;9.38;5.05;;;12.70;99.90;;;;;;5095736;28;20031;-46
2023/10/25 11:24:59;;;;;;;10.70;5.57;;;12.80;99.90;;;;;;5114314;28;20031;-46
2023/10/25 11:27:32;;;;;;;10.20;5.13;;;12.80;99.90;;;;;;5114219;28;20454;-45
2023/10/25 11:30:00;;;;;;;9.43;4.90;;;12.80;99.90;;;;;;5109587;28;20036;-46
2023/10/25 11:32:28;;;;;;;10.30;4.75;;;12.80;99.90;;;;;;5114400;28;20043;-47
2023/10/25 11:34:56;;;;;;;8.35;5.43;;;12.80;99.90;;;;;;5114308;28;20044;-44
2023/10/25 11:37:41;;;;;;;13.98;5.38;;;12.80;99.90;;;;;;5114287;28;20078;-49
2023/10/25 11:40:07;;;;;;;10.73;5.43;;;12.80;99.90;;;;;;5114142;28;20100;-47
2023/10/25 11:42:33;;;;;;;13.70;5.78;;;12.90;99.90;;;;;;5113910;28;20130;-46
2023/10/25 11:44:59;;;;;;;10.02;5.97;;;12.90;99.90;;;;;;5114147;28;20039;-47
2023/10/25 11:47:27;;;;;;;9.30;6.30;;;12.90;99.90;;;;;;5113956;28;20508;-47
2023/10/25 11:49:57;;;;;;;11.32;6.18;;;12.80;99.90;;;;;;5114094;28;20039;-46
2023/10/25 11:52:30;;;;;;;9.00;5.28;;;12.80;99.90;;;;;;5113702;28;20046;-46
2023/10/25 11:54:58;;;;;;;10.38;5.70;;;12.90;99.90;;;;;;5113859;28;20044;-46
2023/10/25 11:57:32;;;;;;;10.00;5.60;;;12.90;99.90;;;;;;5113707;28;20051;-47
2023/10/25 11:59:58;;;;;;;10.95;5.30;;;13.00;99.90;;;;;;5101283;28;20039;-49
2023/10/25 12:02:25;;;;;;;14.43;5.63;;;12.90;99.90;;;;;;5113657;28;20043;-48
2023/10/25 12:04:55;;;;;;;7.45;5.15;;;12.90;99.90;;;;;;5099474;28;20028;-46
2023/10/25 12:07:22;;;;;;;10.45;5.50;;;12.90;99.90;;;;;;5113558;28;20051;-45
2023/10/25 12:09:52;;;;;;;10.02;4.93;;;12.90;99.90;;;;;;5095493;28;20073;-48
2023/10/25 12:12:18;;;;;;;13.07;5.40;;;12.80;99.90;;;;;;5113384;28;20058;-47
2023/10/25 12:14:44;;;;;;;8.95;5.22;;;12.80;99.90;;;;;;5113341;28;20035;-46
2023/10/25 12:17:10;;;;;;;8.57;5.30;;;12.80;99.90;;;;;;5113238;28;20040;-47
2023/10/25 12:19:36;;;;;;;7.20;4.70;;;12.80;99.90;;;;;;5113109;28;20040;-46
2023/10/25 12:22:08;;;;;;;10.55;4.60;;;12.80;99.90;;;;;;5113291;28;20036;-46
2023/10/25 12:24:35;;;;;;;10.50;4.57;;;12.70;99.90;;;;;;5113105;28;20032;-46
2023/10/25 12:27:02;;;;;;;9.38;4.35;;;12.70;99.90;;;;;;5095116;28;20034;-46
2023/10/25 12:29:28;;;;;;;8.63;4.28;;;12.70;99.90;;;;;;5112982;28;20076;-45
2023/10/25 12:31:54;;;;;;;7.82;4.40;;;12.70;99.90;;;;;;5112998;28;20486;-49
2023/10/25 12:34:20;;;;;;;8.50;4.53;;;12.10;99.90;;;;;;5112765;28;20038;-45
2023/10/25 12:36:46;;;;;;;6.00;4.28;;;12.60;99.90;;;;;;5113006;28;20048;-47
2023/10/25 12:39:13;;;;;;;9.65;4.50;;;12.60;99.90;;;;;;5112784;28;20566;-45
2023/10/25 12:41:39;;;;;;;7.82;3.95;;;12.60;99.90;;;;;;5112687;28;20505;-46
2023/10/25 12:44:08;;;;;;;10.35;4.15;;;12.60;99.90;;;;;;5112613;28;20039;-49
2023/10/25 12:46:36;;;;;;;;;;;12.60;99.90;;;;;;5112632;28;20035;-45